Time;durP1;ratioP1;P1;durP2;ratioP2;P2;SDS_P1;SDS_P2;PMS_P1;PMS_P2;Temp;Humidity;BMP_temperature;BMP_pressure;BME280_temperature;BME280_humidity;BME280_pressure;Samples;Min_cycle;Max_cycle;Signal;HPM_P1;HPM_P2
2022/06/29 00:00:00;;;;;;;2.05;0.75;;;22.60;56.80;;;;;;5102832;28;20040;-64
2022/06/29 00:02:25;;;;;;;2.58;0.88;;;22.60;56.80;;;;;;5105154;28;20040;-65
2022/06/29 00:04:51;;;;;;;1.63;0.85;;;22.60;57.60;;;;;;5104169;28;20036;-64
2022/06/29 00:07:17;;;;;;;1.55;0.80;;;22.60;56.80;;;;;;5104305;28;20051;-64
2022/06/29 00:09:42;;;;;;;1.25;0.77;;;22.60;56.90;;;;;;5103248;28;20044;-65
2022/06/29 00:12:08;;;;;;;1.90;0.90;;;22.60;56.80;;;;;;5103519;28;20056;-65
2022/06/29 00:14:41;;;;;;;1.90;0.80;;;22.50;56.80;;;;;;5085762;28;20043;-65
2022/06/29 00:17:09;;;;;;;2.03;0.80;;;22.60;56.90;;;;;;5095433;28;20046;-64
2022/06/29 00:19:35;;;;;;;1.13;0.77;;;22.50;56.90;;;;;;5085852;28;20047;-65
2022/06/29 00:22:00;;;;;;;0.80;0.70;;;22.50;56.90;;;;;;5086320;28;20048;-65
2022/06/29 00:24:26;;;;;;;1.23;0.70;;;22.50;56.90;;;;;;5103701;28;20044;-65
2022/06/29 00:26:51;;;;;;;1.20;0.90;;;22.50;56.90;;;;;;5094042;28;20078;-66
2022/06/29 00:29:17;;;;;;;1.63;0.80;;;22.50;56.90;;;;;;5104049;28;20050;-66
2022/06/29 00:31:43;;;;;;;1.40;0.80;;;22.50;56.90;;;;;;5108364;28;20103;-66
2022/06/29 00:34:08;;;;;;;2.58;0.80;;;22.50;57.00;;;;;;5106218;28;20100;-64
2022/06/29 00:36:34;;;;;;;1.38;0.70;;;22.50;57.00;;;;;;5076637;28;20491;-65
2022/06/29 00:38:59;;;;;;;1.77;0.70;;;22.50;57.00;;;;;;5106536;28;20698;-65
2022/06/29 00:41:25;;;;;;;1.45;0.77;;;22.50;57.00;;;;;;5107836;28;20117;-64
2022/06/29 00:43:50;;;;;;;1.73;0.90;;;22.50;57.00;;;;;;5106954;28;20047;-65
2022/06/29 00:46:16;;;;;;;2.33;0.90;;;22.50;57.00;;;;;;5108471;28;20157;-65
2022/06/29 00:48:41;;;;;;;1.27;0.70;;;22.50;57.00;;;;;;5108131;28;20126;-65
2022/06/29 00:51:11;;;;;;;1.73;0.75;;;22.50;57.10;;;;;;5107376;28;20514;-65
2022/06/29 00:53:40;;;;;;;1.55;0.70;;;22.50;57.10;;;;;;5094617;28;20119;-65
2022/06/29 00:56:10;;;;;;;1.45;0.80;;;22.50;57.10;;;;;;5106548;28;20047;-66
2022/06/29 00:58:37;;;;;;;1.75;0.70;;;22.50;57.10;;;;;;5107449;28;20475;-65
2022/06/29 01:01:04;;;;;;;1.60;0.80;;;22.40;57.00;;;;;;5106589;28;20058;-65
2022/06/29 01:03:30;;;;;;;1.40;0.75;;;22.50;57.10;;;;;;5107415;28;20070;-65
2022/06/29 01:05:56;;;;;;;1.25;0.80;;;22.50;57.20;;;;;;5107276;28;20506;-64
2022/06/29 01:08:21;;;;;;;2.08;1.00;;;22.50;57.10;;;;;;5106349;28;20040;-64
2022/06/29 01:10:47;;;;;;;3.50;0.77;;;22.40;57.10;;;;;;5107239;28;20035;-64
2022/06/29 01:13:13;;;;;;;1.83;0.73;;;22.40;57.10;;;;;;5106034;28;20493;-64
2022/06/29 01:15:40;;;;;;;1.58;0.70;;;22.40;57.10;;;;;;5093531;28;20046;-64
2022/06/29 01:18:06;;;;;;;2.25;0.98;;;22.40;57.10;;;;;;5087777;28;20094;-64
2022/06/29 01:20:32;;;;;;;1.05;0.68;;;22.40;57.10;;;;;;5106944;28;20039;-63
2022/06/29 01:22:58;;;;;;;1.20;0.70;;;22.40;57.10;;;;;;5106423;28;20458;-65
2022/06/29 01:25:23;;;;;;;1.20;0.77;;;22.40;57.20;;;;;;5105589;28;20066;-65
2022/06/29 01:27:49;;;;;;;2.45;0.80;;;22.30;57.10;;;;;;5093510;28;20062;-65
2022/06/29 01:30:14;;;;;;;1.40;0.90;;;22.40;57.10;;;;;;5106098;28;20061;-64
2022/06/29 01:32:40;;;;;;;0.98;0.70;;;22.40;57.20;;;;;;5107054;28;20061;-65
2022/06/29 01:35:11;;;;;;;1.60;0.90;;;22.30;57.10;;;;;;5106238;28;20066;-65
2022/06/29 01:37:38;;;;;;;1.63;0.75;;;22.40;57.20;;;;;;5122011;27;20050;-65
2022/06/29 01:40:04;;;;;;;3.15;0.88;;;22.30;57.10;;;;;;5105964;28;20051;-64
2022/06/29 01:42:30;;;;;;;0.73;0.70;;;22.40;57.20;;;;;;5106791;28;20210;-65
2022/06/29 01:44:56;;;;;;;2.45;0.80;;;22.30;57.90;;;;;;5106418;28;20502;-63
2022/06/29 01:47:21;;;;;;;1.05;0.73;;;22.40;57.20;;;;;;5105911;28;20044;-65
2022/06/29 01:49:47;;;;;;;1.38;0.75;;;22.40;57.20;;;;;;5106387;28;20046;-65
2022/06/29 01:52:13;;;;;;;3.42;1.10;;;22.40;57.20;;;;;;5105519;28;20053;-65
2022/06/29 01:54:39;;;;;;;1.88;0.85;;;22.30;57.20;;;;;;5106709;28;20039;-65
2022/06/29 01:57:05;;;;;;;0.63;0.63;;;22.40;57.30;;;;;;5104950;28;20046;-65
2022/06/29 01:59:31;;;;;;;1.65;0.80;;;22.30;57.20;;;;;;5107064;27;20294;-65
2022/06/29 02:01:57;;;;;;;1.40;0.77;;;22.40;57.20;;;;;;5106112;28;20093;-66
2022/06/29 02:04:22;;;;;;;1.50;0.80;;;22.30;57.20;;;;;;5105961;28;20054;-65
2022/06/29 02:06:48;;;;;;;1.30;0.65;;;22.30;57.20;;;;;;5106485;28;20044;-65
2022/06/29 02:09:14;;;;;;;1.63;0.95;;;22.30;57.20;;;;;;5104354;28;20503;-65
2022/06/29 02:11:40;;;;;;;1.67;1.10;;;22.30;57.30;;;;;;5106163;28;20044;-65
2022/06/29 02:14:06;;;;;;;3.38;0.88;;;22.30;57.20;;;;;;5105007;28;20403;-65
2022/06/29 02:16:31;;;;;;;1.10;0.60;;;22.30;57.20;;;;;;5106282;28;20051;-66
2022/06/29 02:18:57;;;;;;;1.08;0.70;;;22.30;57.20;;;;;;5105282;28;20032;-63
2022/06/29 02:21:23;;;;;;;1.15;0.85;;;22.30;57.30;;;;;;5105232;28;20448;-65
2022/06/29 02:23:49;;;;;;;1.13;0.80;;;22.30;57.20;;;;;;5105506;28;20031;-65
2022/06/29 02:26:14;;;;;;;1.05;0.85;;;22.30;57.30;;;;;;5096244;28;20044;-66
2022/06/29 02:28:40;;;;;;;0.95;0.75;;;22.30;57.30;;;;;;5099706;28;20210;-65
2022/06/29 02:36:35;;;;;;;1.65;0.98;;;22.20;57.20;;;;;;5105292;28;20048;-65
2022/06/29 02:39:01;;;;;;;1.35;0.82;;;22.20;57.30;;;;;;5104695;28;20027;-65
2022/06/29 02:41:27;;;;;;;2.42;0.70;;;22.20;57.20;;;;;;5105247;28;20038;-64
2022/06/29 02:43:52;;;;;;;1.30;0.88;;;22.20;57.20;;;;;;5104349;28;20043;-65
2022/06/29 02:46:18;;;;;;;0.90;0.73;;;22.20;57.30;;;;;;5105694;28;20075;-64
2022/06/29 02:48:44;;;;;;;1.85;0.60;;;22.20;57.30;;;;;;5103909;28;20040;-64
2022/06/29 02:51:09;;;;;;;1.67;0.80;;;22.20;57.30;;;;;;5105004;28;20491;-64
2022/06/29 02:53:35;;;;;;;1.95;0.80;;;22.20;57.30;;;;;;5104385;28;20440;-64
2022/06/29 02:56:01;;;;;;;1.33;0.80;;;22.20;57.30;;;;;;5104749;28;20083;-65
2022/06/29 02:58:26;;;;;;;1.02;0.80;;;22.20;57.30;;;;;;5104599;28;20399;-64
2022/06/29 03:00:52;;;;;;;3.80;0.90;;;22.20;57.30;;;;;;5104204;28;20211;-64
2022/06/29 03:03:17;;;;;;;0.90;0.80;;;22.20;57.30;;;;;;5105276;28;20816;-65
2022/06/29 03:05:43;;;;;;;1.50;0.90;;;22.20;57.30;;;;;;5103908;28;20108;-65
2022/06/29 03:08:08;;;;;;;1.65;0.80;;;22.20;57.30;;;;;;5104864;28;20508;-64
2022/06/29 03:10:34;;;;;;;2.15;1.00;;;22.20;57.40;;;;;;5103659;28;20166;-65
2022/06/29 03:13:00;;;;;;;2.35;0.90;;;22.20;57.30;;;;;;5104858;28;20059;-66
2022/06/29 03:15:25;;;;;;;1.27;0.93;;;22.20;57.40;;;;;;5104656;28;20387;-65
2022/06/29 03:17:54;;;;;;;2.88;1.00;;;22.20;57.40;;;;;;5104605;28;20089;-65
2022/06/29 03:20:21;;;;;;;1.48;1.00;;;22.20;57.40;;;;;;5104633;28;20088;-66
2022/06/29 03:22:47;;;;;;;1.52;0.90;;;22.20;57.40;;;;;;5085421;28;20550;-65
2022/06/29 03:25:14;;;;;;;1.80;0.80;;;22.20;57.40;;;;;;5105027;28;20035;-64
2022/06/29 03:27:39;;;;;;;1.83;0.93;;;22.20;57.50;;;;;;5088762;28;20083;-65
2022/06/29 03:30:05;;;;;;;1.08;0.95;;;22.20;57.50;;;;;;5104479;28;20067;-66
2022/06/29 03:32:31;;;;;;;1.73;0.98;;;22.20;57.40;;;;;;5103789;28;20579;-64
2022/06/29 03:34:57;;;;;;;1.67;0.90;;;22.20;57.50;;;;;;5104793;28;20149;-64
2022/06/29 03:37:23;;;;;;;0.77;0.70;;;22.10;57.40;;;;;;5104563;28;20400;-65
2022/06/29 03:39:48;;;;;;;2.05;1.20;;;22.10;57.40;;;;;;5103242;28;20107;-65
2022/06/29 03:42:14;;;;;;;1.65;0.90;;;22.10;57.40;;;;;;5104558;28;20176;-65
2022/06/29 03:44:40;;;;;;;2.22;0.90;;;22.20;57.50;;;;;;5103789;28;20040;-65
2022/06/29 03:47:07;;;;;;;2.35;1.02;;;22.20;57.50;;;;;;5104933;28;20090;-65
2022/06/29 03:49:33;;;;;;;3.75;0.98;;;22.20;57.50;;;;;;5084448;28;20055;-66
2022/06/29 03:51:59;;;;;;;1.63;1.00;;;22.10;57.40;;;;;;5104646;28;20047;-65
2022/06/29 03:54:25;;;;;;;2.42;0.90;;;22.10;57.50;;;;;;5103777;28;20038;-65
2022/06/29 03:56:50;;;;;;;0.90;0.73;;;22.10;57.40;;;;;;5103676;28;20039;-65
2022/06/29 03:59:16;;;;;;;1.75;0.90;;;22.10;57.40;;;;;;5103635;28;20283;-66
2022/06/29 04:01:41;;;;;;;1.45;0.70;;;22.10;57.40;;;;;;5107130;28;20046;-65
2022/06/29 04:04:07;;;;;;;1.48;1.00;;;22.10;57.40;;;;;;5090940;28;20085;-65
2022/06/29 04:06:32;;;;;;;1.63;1.00;;;22.10;57.50;;;;;;5107991;28;20043;-65
2022/06/29 04:08:58;;;;;;;1.00;0.90;;;22.10;57.40;;;;;;5108517;28;20348;-65
2022/06/29 04:14:07;;;;;;;2.17;0.80;;;22.10;57.40;;;;;;5108157;28;19955;-66
2022/06/29 04:16:33;;;;;;;1.35;0.90;;;22.10;57.50;;;;;;5109173;28;20044;-64
2022/06/29 04:18:59;;;;;;;1.27;0.90;;;22.10;57.50;;;;;;5107499;28;20066;-65
2022/06/29 04:21:26;;;;;;;3.40;1.00;;;22.10;57.50;;;;;;5108135;28;20050;-64
2022/06/29 04:23:52;;;;;;;1.90;0.80;;;22.10;57.40;;;;;;5107080;28;20468;-64
2022/06/29 04:26:18;;;;;;;1.20;0.80;;;22.20;57.50;;;;;;5099376;28;20361;-66
2022/06/29 04:28:44;;;;;;;2.20;1.00;;;22.10;57.50;;;;;;5101503;28;20120;-65
2022/06/29 04:31:10;;;;;;;1.17;0.90;;;22.10;57.50;;;;;;5103923;28;20433;-65
2022/06/29 04:33:35;;;;;;;1.27;0.80;;;22.10;57.50;;;;;;5107974;28;20436;-65
2022/06/29 04:36:01;;;;;;;1.02;0.93;;;22.10;57.50;;;;;;5107102;28;20043;-65
2022/06/29 04:38:27;;;;;;;2.05;0.95;;;22.10;57.50;;;;;;5108105;28;20040;-65
2022/06/29 04:40:52;;;;;;;1.48;0.88;;;22.10;57.50;;;;;;5106283;28;20150;-65
2022/06/29 04:43:18;;;;;;;2.05;1.02;;;22.10;57.50;;;;;;5107635;28;20067;-64
2022/06/29 04:48:28;;;;;;;1.00;0.90;;;22.10;57.50;;;;;;5108253;28;20053;-65
2022/06/29 04:50:53;;;;;;;1.83;0.82;;;22.10;57.50;;;;;;5108076;28;20040;-64
2022/06/29 04:53:22;;;;;;;1.35;0.90;;;22.10;57.50;;;;;;5107339;28;20604;-65
2022/06/29 04:55:47;;;;;;;2.08;0.90;;;22.10;57.50;;;;;;5089835;28;20127;-64
2022/06/29 04:58:13;;;;;;;1.83;1.10;;;22.10;57.50;;;;;;5106058;28;20472;-64
2022/06/29 05:00:38;;;;;;;1.20;0.95;;;22.10;57.50;;;;;;5108337;28;20036;-65
2022/06/29 05:03:04;;;;;;;1.30;0.90;;;22.10;57.60;;;;;;5106720;28;20043;-65
2022/06/29 05:05:29;;;;;;;3.08;0.90;;;22.10;57.50;;;;;;5107941;28;20074;-65
2022/06/29 05:07:55;;;;;;;1.50;1.10;;;22.10;57.50;;;;;;5107377;28;20418;-64
2022/06/29 05:10:21;;;;;;;1.45;1.02;;;22.10;57.50;;;;;;5097398;28;20423;-65
2022/06/29 05:12:46;;;;;;;2.58;1.00;;;22.10;57.50;;;;;;5106058;28;20051;-63
2022/06/29 05:15:12;;;;;;;1.80;1.02;;;22.10;57.50;;;;;;5106637;28;20050;-65
2022/06/29 05:17:37;;;;;;;2.80;1.10;;;22.10;57.50;;;;;;5107573;28;20318;-65
2022/06/29 05:20:05;;;;;;;3.40;1.10;;;22.10;57.50;;;;;;5105698;28;20047;-65
2022/06/29 05:22:31;;;;;;;1.60;0.90;;;22.10;57.50;;;;;;5107352;28;20046;-65
2022/06/29 05:24:56;;;;;;;1.40;1.20;;;22.10;57.50;;;;;;5106455;28;20035;-64
2022/06/29 05:27:22;;;;;;;2.17;1.00;;;22.10;57.50;;;;;;5092272;28;20084;-65
2022/06/29 05:29:47;;;;;;;0.90;0.90;;;22.10;57.50;;;;;;5106065;28;20039;-65
2022/06/29 05:32:13;;;;;;;1.15;0.93;;;22.10;57.50;;;;;;5106091;28;20040;-64
2022/06/29 05:34:38;;;;;;;1.25;0.90;;;22.10;57.50;;;;;;5107144;28;20040;-64
2022/06/29 05:37:04;;;;;;;1.35;1.10;;;22.10;57.50;;;;;;5106002;28;20135;-65
2022/06/29 05:39:29;;;;;;;2.38;0.90;;;22.20;57.60;;;;;;5106386;28;20038;-64
2022/06/29 05:41:55;;;;;;;2.15;1.10;;;22.10;57.50;;;;;;5105054;28;20414;-64
2022/06/29 05:44:21;;;;;;;1.45;1.00;;;22.20;57.50;;;;;;5106864;28;20404;-64
2022/06/29 05:46:46;;;;;;;1.35;0.88;;;22.10;57.50;;;;;;5121678;27;20448;-64
2022/06/29 05:49:12;;;;;;;1.50;1.02;;;22.10;57.50;;;;;;5105503;28;20175;-65
2022/06/29 05:51:37;;;;;;;1.10;0.90;;;22.20;57.50;;;;;;5106637;28;20717;-65
2022/06/29 05:54:03;;;;;;;1.63;0.85;;;22.20;57.60;;;;;;5105541;28;20499;-65
2022/06/29 05:56:28;;;;;;;1.13;1.00;;;22.20;57.70;;;;;;5105901;28;20313;-65
2022/06/29 05:58:54;;;;;;;1.50;1.00;;;22.20;57.70;;;;;;5093445;28;20411;-64
2022/06/29 06:01:20;;;;;;;2.15;1.25;;;22.20;57.80;;;;;;5103049;28;20158;-66
2022/06/29 06:03:45;;;;;;;2.08;1.20;;;22.20;57.80;;;;;;5105615;28;20475;-65
2022/06/29 06:06:12;;;;;;;1.65;1.20;;;22.30;57.90;;;;;;5106156;28;20028;-65
2022/06/29 06:08:37;;;;;;;1.85;1.10;;;22.40;57.90;;;;;;5105966;28;20066;-65
2022/06/29 06:11:03;;;;;;;2.08;1.20;;;22.40;58.00;;;;;;5086047;28;20374;-65
2022/06/29 06:13:29;;;;;;;2.85;0.93;;;22.40;58.00;;;;;;5106385;28;20035;-64
2022/06/29 06:15:54;;;;;;;1.58;0.90;;;22.40;58.00;;;;;;5105797;28;20066;-65
2022/06/29 06:18:20;;;;;;;2.58;1.20;;;22.50;58.00;;;;;;5106511;28;20028;-65
2022/06/29 06:20:46;;;;;;;3.50;1.20;;;22.60;58.00;;;;;;5105450;28;20046;-66
2022/06/29 06:23:12;;;;;;;3.08;1.23;;;22.50;58.00;;;;;;5105494;28;20047;-64
2022/06/29 06:25:37;;;;;;;1.13;1.02;;;22.60;58.00;;;;;;5083672;28;20046;-65
2022/06/29 06:28:05;;;;;;;1.30;1.10;;;22.60;58.00;;;;;;5093962;28;20119;-65
2022/06/29 06:30:31;;;;;;;1.33;0.85;;;22.70;57.90;;;;;;5101537;28;20046;-65
2022/06/29 06:32:56;;;;;;;2.28;1.20;;;22.70;58.00;;;;;;5104503;28;20047;-64
2022/06/29 06:35:22;;;;;;;1.92;1.10;;;22.70;57.90;;;;;;5106059;28;20086;-64
2022/06/29 06:37:48;;;;;;;2.40;1.00;;;22.70;57.90;;;;;;5099755;28;20115;-66
2022/06/29 06:42:59;;;;;;;0.90;0.90;;;22.90;57.80;;;;;;5091216;28;20455;-65
2022/06/29 06:45:25;;;;;;;1.30;0.90;;;22.90;57.80;;;;;;5102040;28;20044;-65
2022/06/29 06:47:52;;;;;;;1.20;1.08;;;22.90;58.50;;;;;;5106178;28;20467;-65
2022/06/29 06:50:17;;;;;;;1.75;1.15;;;22.90;57.60;;;;;;5105139;28;20082;-65
2022/06/29 06:52:44;;;;;;;1.27;1.00;;;23.00;57.60;;;;;;5105556;28;20455;-65
2022/06/29 06:55:10;;;;;;;1.40;1.20;;;23.10;57.60;;;;;;5104427;28;20126;-65
2022/06/29 06:57:36;;;;;;;3.30;1.10;;;23.00;57.50;;;;;;5119599;27;20660;-64
2022/06/29 07:00:02;;;;;;;3.22;1.13;;;23.10;57.40;;;;;;5103643;28;20143;-65
2022/06/29 07:02:28;;;;;;;1.30;1.20;;;23.10;57.40;;;;;;5105196;28;20411;-65
2022/06/29 07:04:54;;;;;;;2.63;1.00;;;23.20;57.30;;;;;;5105122;28;20050;-65
2022/06/29 07:07:19;;;;;;;1.98;1.05;;;23.20;57.20;;;;;;5104462;28;20043;-65
2022/06/29 07:09:45;;;;;;;4.78;1.05;;;23.20;57.20;;;;;;5104752;28;20142;-64
2022/06/29 07:12:10;;;;;;;1.10;1.00;;;23.20;57.20;;;;;;5103733;28;20090;-64
2022/06/29 07:14:36;;;;;;;1.58;1.05;;;23.30;57.20;;;;;;5105467;28;20442;-65
2022/06/29 07:17:02;;;;;;;1.55;0.90;;;23.30;57.10;;;;;;5104060;28;20146;-65
2022/06/29 07:19:27;;;;;;;1.20;1.02;;;23.30;57.00;;;;;;5104949;28;20130;-65
2022/06/29 07:21:54;;;;;;;1.40;1.30;;;23.30;57.00;;;;;;5104481;28;20051;-66
2022/06/29 07:24:19;;;;;;;1.77;1.02;;;23.30;56.90;;;;;;5104693;28;20040;-65
2022/06/29 07:26:45;;;;;;;1.42;0.90;;;23.30;56.80;;;;;;5100324;28;20058;-64
2022/06/29 07:29:11;;;;;;;3.28;1.10;;;23.40;56.80;;;;;;5102507;28;20055;-65
2022/06/29 07:31:37;;;;;;;2.30;1.02;;;23.40;56.70;;;;;;5105208;28;20046;-65
2022/06/29 07:34:03;;;;;;;1.67;1.20;;;23.40;56.70;;;;;;5103818;28;20043;-65
2022/06/29 07:36:29;;;;;;;1.90;0.98;;;23.40;56.60;;;;;;5104570;28;20139;-66
2022/06/29 07:38:54;;;;;;;1.55;1.10;;;23.40;56.50;;;;;;5103385;28;20048;-65
2022/06/29 07:41:20;;;;;;;1.50;1.10;;;23.40;56.50;;;;;;5086001;28;20384;-65
2022/06/29 07:43:46;;;;;;;2.33;1.10;;;23.50;56.50;;;;;;5103930;28;20054;-65
2022/06/29 07:46:12;;;;;;;0.98;0.88;;;23.50;56.50;;;;;;5104122;28;20035;-65
2022/06/29 07:48:37;;;;;;;2.35;1.10;;;23.50;56.50;;;;;;5104703;28;20028;-65
2022/06/29 07:51:03;;;;;;;1.42;1.00;;;23.50;56.40;;;;;;5103220;28;20031;-63
2022/06/29 07:53:29;;;;;;;2.50;1.15;;;23.50;56.40;;;;;;5104639;28;20093;-64
2022/06/29 07:55:55;;;;;;;1.42;1.20;;;23.50;56.30;;;;;;5103666;28;20108;-62
2022/06/29 07:58:21;;;;;;;3.50;1.38;;;23.50;56.30;;;;;;5104268;28;20487;-64
2022/06/29 08:00:46;;;;;;;1.38;1.00;;;23.60;56.30;;;;;;5103405;28;20114;-65
2022/06/29 08:03:12;;;;;;;2.45;1.15;;;23.60;56.20;;;;;;5104049;28;20467;-64
2022/06/29 08:05:38;;;;;;;4.20;1.20;;;23.60;56.90;;;;;;5120321;28;20411;-64
2022/06/29 08:08:04;;;;;;;1.17;0.90;;;23.60;56.10;;;;;;5103267;28;20458;-64
2022/06/29 08:10:31;;;;;;;1.25;0.90;;;23.60;56.00;;;;;;5085343;28;20050;-65
2022/06/29 08:12:57;;;;;;;1.40;1.10;;;23.60;56.00;;;;;;5102416;28;20463;-64
2022/06/29 08:15:24;;;;;;;4.13;1.10;;;23.70;56.00;;;;;;5104592;28;20346;-65
2022/06/29 08:17:49;;;;;;;1.73;1.23;;;23.70;55.90;;;;;;5103497;28;20409;-65
2022/06/29 08:20:15;;;;;;;1.00;0.90;;;23.70;55.80;;;;;;5104640;28;20075;-64
2022/06/29 08:22:41;;;;;;;1.45;1.10;;;23.70;55.80;;;;;;5086297;28;20040;-66
2022/06/29 08:25:08;;;;;;;1.63;1.00;;;23.70;55.70;;;;;;5104081;28;20123;-65
2022/06/29 08:27:33;;;;;;;2.63;0.98;;;23.80;55.70;;;;;;5090254;28;20031;-65
2022/06/29 08:30:00;;;;;;;3.03;1.10;;;23.70;55.50;;;;;;5102985;28;20055;-64
2022/06/29 08:32:26;;;;;;;1.30;1.10;;;23.80;55.60;;;;;;5104290;28;20032;-64
2022/06/29 08:34:52;;;;;;;1.83;1.00;;;23.80;55.40;;;;;;5103417;28;20035;-66
2022/06/29 08:37:18;;;;;;;1.52;1.30;;;23.80;55.30;;;;;;5104185;28;20035;-65
2022/06/29 08:39:44;;;;;;;2.63;1.00;;;23.90;55.30;;;;;;5102850;28;20078;-64
2022/06/29 08:42:10;;;;;;;1.85;1.13;;;23.90;55.30;;;;;;5103488;28;20079;-65
2022/06/29 08:44:37;;;;;;;1.65;1.10;;;23.90;55.20;;;;;;5104726;28;20055;-65
2022/06/29 08:47:08;;;;;;;2.58;1.00;;;23.80;55.10;;;;;;5104356;28;20032;-65
2022/06/29 08:49:36;;;;;;;1.73;1.23;;;23.80;55.00;;;;;;5090335;28;20054;-65
2022/06/29 08:52:06;;;;;;;2.13;1.20;;;23.80;55.10;;;;;;5107192;28;20161;-65
2022/06/29 08:54:36;;;;;;;1.77;1.05;;;23.80;55.10;;;;;;5108115;28;20557;-65
2022/06/29 08:57:03;;;;;;;1.60;1.30;;;23.80;55.20;;;;;;5107028;28;20062;-65
2022/06/29 08:59:29;;;;;;;1.25;1.15;;;23.80;55.20;;;;;;5106477;28;20039;-65
2022/06/29 09:01:55;;;;;;;3.20;1.17;;;23.80;55.20;;;;;;5108104;28;20058;-65
2022/06/29 09:04:20;;;;;;;1.65;1.02;;;23.80;55.20;;;;;;5106857;28;20039;-65
2022/06/29 09:06:51;;;;;;;1.50;1.20;;;23.80;55.20;;;;;;5123053;27;20042;-65
2022/06/29 09:09:17;;;;;;;1.92;1.08;;;23.80;55.30;;;;;;5105859;28;20059;-64
2022/06/29 09:11:46;;;;;;;1.75;0.93;;;23.90;55.30;;;;;;5107472;28;20445;-64
2022/06/29 09:14:17;;;;;;;3.40;1.23;;;23.90;55.20;;;;;;5088028;28;20105;-64
2022/06/29 09:16:49;;;;;;;2.20;1.30;;;23.90;55.20;;;;;;5107082;28;20043;-64
2022/06/29 09:19:19;;;;;;;1.70;1.13;;;23.90;55.10;;;;;;5106941;28;20051;-64
2022/06/29 09:21:46;;;;;;;1.02;1.00;;;23.90;55.10;;;;;;5106205;28;20085;-64
2022/06/29 09:24:20;;;;;;;1.52;1.27;;;23.90;55.00;;;;;;5106848;28;20028;-65
2022/06/29 09:26:54;;;;;;;2.60;1.33;;;23.90;55.00;;;;;;5093110;28;20036;-65
2022/06/29 09:29:29;;;;;;;1.98;1.10;;;23.90;54.90;;;;;;5105685;28;20051;-64
2022/06/29 09:32:09;;;;;;;1.30;1.17;;;23.90;54.90;;;;;;5106965;28;20040;-65
2022/06/29 09:34:41;;;;;;;1.88;1.10;;;23.90;54.90;;;;;;5092599;28;20047;-64
2022/06/29 09:37:10;;;;;;;1.10;1.00;;;23.90;54.90;;;;;;5107255;28;20525;-65
2022/06/29 09:39:38;;;;;;;1.83;1.20;;;23.90;54.90;;;;;;5105439;28;20043;-64
2022/06/29 09:42:06;;;;;;;1.75;1.30;;;23.90;54.90;;;;;;5106596;28;20173;-65
2022/06/29 09:44:32;;;;;;;2.45;1.45;;;23.90;54.90;;;;;;5106051;28;20582;-66
2022/06/29 09:46:58;;;;;;;2.15;1.27;;;23.90;54.90;;;;;;5106417;28;20272;-65
2022/06/29 09:49:28;;;;;;;1.35;1.25;;;23.90;54.90;;;;;;5106149;28;20058;-65
2022/06/29 09:51:59;;;;;;;2.20;1.30;;;23.90;54.90;;;;;;5105693;28;20503;-66
2022/06/29 09:54:29;;;;;;;2.83;1.10;;;23.90;54.80;;;;;;5106554;28;20039;-65
2022/06/29 09:56:56;;;;;;;2.17;1.30;;;23.90;54.80;;;;;;5087171;28;20043;-65
2022/06/29 10:02:34;;;;;;;3.10;1.38;;;23.90;54.80;;;;;;5104575;28;20048;-64
2022/06/29 10:02:36;;;;;;;1.60;1.30;;;23.90;54.70;;;;;;5106766;28;20702;-66
2022/06/29 10:05:04;;;;;;;2.10;1.00;;;23.90;54.70;;;;;;5105832;28;20324;-64
2022/06/29 10:07:31;;;;;;;1.30;1.02;;;24.00;54.80;;;;;;5106691;28;20039;-64
2022/06/29 10:09:59;;;;;;;1.38;1.27;;;23.90;54.70;;;;;;5105045;28;20052;-65
2022/06/29 10:15:47;;;;;;;2.00;1.30;;;24.00;54.70;;;;;;5094966;28;20051;-65
2022/06/29 10:18:43;;;;;;;3.75;1.38;;;24.00;54.70;;;;;;5104767;28;20471;-64
2022/06/29 10:21:27;;;;;;;1.30;1.20;;;24.00;54.60;;;;;;5105820;28;20218;-66
2022/06/29 10:23:55;;;;;;;1.38;1.20;;;24.10;54.70;;;;;;5100208;28;20043;-65
2022/06/29 10:26:34;;;;;;;1.58;1.27;;;24.00;54.60;;;;;;5095832;28;20055;-66
2022/06/29 10:29:06;;;;;;;1.80;1.38;;;24.00;54.60;;;;;;5101816;28;20471;-64
2022/06/29 10:31:49;;;;;;;4.22;1.50;;;24.10;54.60;;;;;;5105409;28;20383;-65
2022/06/29 10:34:30;;;;;;;1.90;1.50;;;24.10;54.60;;;;;;5106126;28;20393;-65
2022/06/29 10:36:59;;;;;;;1.73;1.20;;;24.10;54.40;;;;;;5105104;28;20066;-64
2022/06/29 10:39:24;;;;;;;1.55;1.45;;;24.10;54.40;;;;;;5090109;28;20395;-65
2022/06/29 10:45:14;;;;;;;1.35;1.25;;;24.10;54.40;;;;;;5099235;28;20079;-65
2022/06/29 10:48:07;;;;;;;1.50;1.30;;;24.10;54.30;;;;;;5022233;28;20307;-65
2022/06/29 10:50:34;;;;;;;1.70;1.17;;;24.10;54.30;;;;;;5022016;28;20536;-65
2022/06/29 10:53:11;;;;;;;1.45;1.08;;;24.10;54.40;;;;;;5083117;27;20064;-65
2022/06/29 10:55:40;;;;;;;1.52;1.20;;;24.10;54.30;;;;;;5104001;28;20043;-65
2022/06/29 10:58:06;;;;;;;2.45;1.38;;;24.10;54.30;;;;;;5103012;28;20832;-64
2022/06/29 11:00:38;;;;;;;1.25;1.10;;;24.10;54.30;;;;;;5103892;28;20047;-65
2022/06/29 11:03:12;;;;;;;1.92;1.58;;;24.10;54.20;;;;;;5105314;28;20075;-65
2022/06/29 11:12:01;;;;;;;1.85;1.30;;;24.10;54.20;;;;;;5104296;28;20173;-65
2022/06/29 11:13:58;;;;;;;1.27;1.17;;;24.10;54.20;;;;;;5083699;28;20134;-65
2022/06/29 11:16:28;;;;;;;1.50;1.40;;;24.20;54.30;;;;;;5083199;28;20448;-65
2022/06/29 11:18:57;;;;;;;2.03;1.50;;;24.20;54.20;;;;;;5083613;28;20364;-65
2022/06/29 11:21:23;;;;;;;1.58;1.30;;;24.20;54.20;;;;;;5084477;28;20479;-65
2022/06/29 11:23:56;;;;;;;1.45;1.35;;;24.20;54.20;;;;;;5083652;28;20085;-65
2022/06/29 11:26:25;;;;;;;2.55;1.42;;;24.20;54.20;;;;;;5075350;28;20051;-65
2022/06/29 11:28:51;;;;;;;1.80;1.52;;;24.20;54.20;;;;;;5079515;28;20036;-65
2022/06/29 11:31:17;;;;;;;2.33;1.45;;;24.20;54.10;;;;;;5082912;28;20130;-64
2022/06/29 11:33:50;;;;;;;1.50;1.40;;;24.20;54.10;;;;;;5084763;28;20048;-66
2022/06/29 11:36:19;;;;;;;2.25;1.52;;;24.20;54.00;;;;;;5083517;28;20039;-64
2022/06/29 11:38:50;;;;;;;1.60;1.50;;;24.20;54.10;;;;;;5084538;28;20450;-64
2022/06/29 11:41:19;;;;;;;3.42;1.50;;;24.30;54.00;;;;;;5083031;28;20232;-63
2022/06/29 11:43:45;;;;;;;2.08;1.17;;;24.30;54.00;;;;;;5084148;28;20205;-64
2022/06/29 11:46:19;;;;;;;1.33;1.20;;;24.40;53.90;;;;;;5084203;28;20062;-65
2022/06/29 11:51:34;;;;;;;1.67;1.20;;;24.70;53.20;;;;;;5071066;28;20040;-64
2022/06/29 11:54:06;;;;;;;1.35;1.25;;;24.70;53.20;;;;;;5082815;28;20516;-65
2022/06/29 11:56:32;;;;;;;1.77;1.30;;;24.60;53.10;;;;;;5084357;28;20044;-64
2022/06/29 11:59:03;;;;;;;1.50;1.20;;;24.60;53.20;;;;;;5083663;28;20036;-65
2022/06/29 12:01:29;;;;;;;1.40;1.30;;;24.60;53.20;;;;;;5081500;28;20040;-65
2022/06/29 12:03:57;;;;;;;1.65;1.20;;;24.60;53.20;;;;;;5084371;28;20047;-65
2022/06/29 12:06:25;;;;;;;1.40;1.10;;;24.60;53.20;;;;;;5083057;28;20044;-66
2022/06/29 12:08:52;;;;;;;2.00;1.50;;;24.60;53.20;;;;;;5085482;28;20047;-65
2022/06/29 12:11:18;;;;;;;1.40;1.30;;;24.60;53.30;;;;;;5102564;28;20484;-65
2022/06/29 12:13:44;;;;;;;1.80;1.60;;;24.50;53.30;;;;;;5104034;28;20047;-64
2022/06/29 12:16:11;;;;;;;1.75;1.65;;;24.50;53.30;;;;;;5102746;28;20555;-68
2022/06/29 12:18:36;;;;;;;2.63;1.38;;;24.50;53.30;;;;;;5104292;28;20035;-69
2022/06/29 12:21:02;;;;;;;3.65;1.63;;;24.50;53.40;;;;;;5104816;28;20481;-68
2022/06/29 12:23:28;;;;;;;2.90;1.55;;;24.60;53.40;;;;;;5089599;28;20040;-65
2022/06/29 12:25:58;;;;;;;1.80;1.40;;;24.70;53.30;;;;;;5103113;28;20423;-65
2022/06/29 12:28:23;;;;;;;2.20;1.45;;;24.90;53.10;;;;;;5098730;28;20051;-65
2022/06/29 12:30:50;;;;;;;2.00;1.42;;;25.10;52.80;;;;;;5088978;28;20048;-65
2022/06/29 12:33:15;;;;;;;1.60;1.35;;;25.20;52.40;;;;;;5107496;28;20048;-65
2022/06/29 12:35:44;;;;;;;1.70;1.60;;;25.20;52.20;;;;;;5107876;28;20039;-65
2022/06/29 12:38:10;;;;;;;4.50;1.50;;;25.30;52.20;;;;;;5107820;28;20390;-65
2022/06/29 12:40:35;;;;;;;2.58;1.50;;;25.20;52.10;;;;;;5106795;28;20044;-64
2022/06/29 12:43:02;;;;;;;1.90;1.52;;;25.10;52.20;;;;;;5108376;28;20048;-65
2022/06/29 12:45:28;;;;;;;3.60;1.60;;;25.10;52.30;;;;;;5106670;28;20047;-65
2022/06/29 12:47:53;;;;;;;1.90;1.50;;;25.10;52.30;;;;;;5107786;28;21341;-65
2022/06/29 12:50:20;;;;;;;2.17;1.77;;;25.00;52.40;;;;;;5106332;28;20039;-65
2022/06/29 12:52:47;;;;;;;2.08;1.88;;;25.00;52.50;;;;;;5107808;28;20054;-66
2022/06/29 12:55:18;;;;;;;1.58;1.40;;;24.90;52.60;;;;;;5106969;28;20490;-65
2022/06/29 12:57:44;;;;;;;1.75;1.65;;;24.90;53.40;;;;;;5107448;28;20875;-64
2022/06/29 13:00:11;;;;;;;2.75;1.83;;;24.80;52.80;;;;;;5106316;28;20040;-65
2022/06/29 13:02:37;;;;;;;2.07;1.87;;;24.80;53.10;;;;;;5106490;28;20046;-64
2022/06/29 13:05:04;;;;;;;1.88;1.70;;;24.80;52.90;;;;;;5105625;28;20475;-64
2022/06/29 13:07:30;;;;;;;1.80;1.70;;;24.80;53.00;;;;;;5106219;28;20044;-64
2022/06/29 13:09:57;;;;;;;2.22;2.00;;;24.70;53.10;;;;;;5106944;28;20120;-64
2022/06/29 13:12:23;;;;;;;1.95;1.75;;;24.70;53.20;;;;;;5106072;28;20043;-64
2022/06/29 13:14:49;;;;;;;1.83;1.70;;;24.60;53.20;;;;;;5107350;28;20050;-63